Time;durP1;ratioP1;P1;durP2;ratioP2;P2;SDS_P1;SDS_P2;PMS_P1;PMS_P2;Temp;Humidity;BMP_temperature;BMP_pressure;BME280_temperature;BME280_humidity;BME280_pressure;Samples;Min_cycle;Max_cycle;Signal;HPM_P1;HPM_P2
2022/09/22 00:01:36;;;;;;;7.20;4.03;;;9.10;99.90;;;;;;4958460;28;20200;-71
2022/09/22 00:04:07;;;;;;;9.80;3.60;;;9.20;99.90;;;;;;4954220;28;20251;-71
2022/09/22 00:06:39;;;;;;;4.93;3.20;;;9.10;1.00;;;;;;4951618;29;20450;-71
2022/09/22 00:09:10;;;;;;;3.35;2.60;;;9.10;1.00;;;;;;4951978;28;20203;-71
2022/09/22 00:11:39;;;;;;;3.03;2.73;;;9.00;99.90;;;;;;4954412;28;20198;-70
2022/09/22 00:14:10;;;;;;;6.83;3.10;;;9.00;62.20;;;;;;4940422;29;20447;-72
2022/09/22 00:16:41;;;;;;;9.10;3.05;;;9.00;99.90;;;;;;4939941;29;20923;-70
2022/09/22 00:19:15;;;;;;;5.00;2.70;;;8.90;99.90;;;;;;4942771;29;20603;-72
2022/09/22 00:21:45;;;;;;;3.25;2.33;;;8.80;1.00;;;;;;4944221;29;20205;-71
2022/09/22 00:24:14;;;;;;;3.90;2.78;;;8.80;2.70;;;;;;4941053;29;20205;-71
2022/09/22 00:26:43;;;;;;;3.72;2.70;;;8.70;99.90;;;;;;4942458;29;20209;-71
2022/09/22 00:29:11;;;;;;;3.78;2.90;;;8.60;99.90;;;;;;4923889;29;20200;-72
2022/09/22 00:31:41;;;;;;;4.47;3.13;;;8.60;99.90;;;;;;4944045;29;20196;-71
2022/09/22 00:34:15;;;;;;;3.38;2.85;;;8.50;99.90;;;;;;4941473;29;20483;-71
2022/09/22 00:36:45;;;;;;;5.03;3.65;;;8.40;99.90;;;;;;4943925;29;20204;-71
2022/09/22 00:39:16;;;;;;;3.67;3.30;;;8.40;99.90;;;;;;4940892;29;20206;-72
2022/09/22 00:41:46;;;;;;;4.15;2.75;;;8.30;99.90;;;;;;4945698;29;20200;-72
2022/09/22 00:44:34;;;;;;;3.17;2.78;;;8.20;99.90;;;;;;4950089;29;20677;-72
2022/09/22 00:47:08;;;;;;;4.75;3.70;;;8.20;99.90;;;;;;4948458;29;20256;-71
2022/09/22 00:49:44;;;;;;;4.22;2.78;;;8.10;99.90;;;;;;4946892;29;20216;-71
2022/09/22 00:52:19;;;;;;;4.20;3.00;;;8.00;99.90;;;;;;4952476;29;20224;-71
2022/09/22 00:54:49;;;;;;;5.50;3.80;;;8.10;99.90;;;;;;4934955;29;20223;-72
2022/09/22 00:57:22;;;;;;;4.60;4.13;;;8.10;99.90;;;;;;4957613;29;20201;-72
2022/09/22 00:59:52;;;;;;;3.90;3.47;;;8.00;99.90;;;;;;4954865;29;20201;-71
2022/09/22 01:02:21;;;;;;;4.80;3.83;;;8.00;99.90;;;;;;4954351;29;20227;-72
2022/09/22 01:04:51;;;;;;;11.18;4.15;;;7.90;99.90;;;;;;4933794;29;20220;-72
2022/09/22 01:07:25;;;;;;;5.47;4.07;;;7.90;99.90;;;;;;4941226;29;20197;-72
2022/09/22 01:09:54;;;;;;;3.65;3.28;;;7.80;99.90;;;;;;4944772;29;20196;-72
2022/09/22 01:12:23;;;;;;;5.05;3.47;;;7.80;99.90;;;;;;4953214;29;20224;-71
2022/09/22 01:15:09;;;;;;;4.40;3.78;;;7.80;99.90;;;;;;4930505;29;20212;-71
2022/09/22 01:17:46;;;;;;;7.70;4.30;;;7.80;99.90;;;;;;4943944;29;20196;-72
2022/09/22 01:20:48;;;;;;;4.72;4.22;;;7.80;99.90;;;;;;4951097;29;20196;-72
2022/09/22 01:23:50;;;;;;;5.80;3.53;;;7.70;99.90;;;;;;4938840;29;20230;-72
2022/09/22 01:26:45;;;;;;;4.30;3.22;;;7.80;99.90;;;;;;4940339;29;20212;-71
2022/09/22 01:29:37;;;;;;;4.35;3.30;;;7.80;99.90;;;;;;4913901;29;20263;-71
2022/09/22 01:32:15;;;;;;;5.47;3.38;;;7.70;99.90;;;;;;4950168;29;20299;-71
2022/09/22 01:34:50;;;;;;;5.47;2.95;;;7.70;99.90;;;;;;4944425;29;20677;-72
2022/09/22 01:37:29;;;;;;;3.05;2.60;;;7.60;99.90;;;;;;4946575;29;20231;-72
2022/09/22 01:40:03;;;;;;;4.60;3.38;;;7.50;99.90;;;;;;4937149;29;20236;-71
2022/09/22 01:42:37;;;;;;;3.70;3.10;;;7.50;99.90;;;;;;4941665;29;20593;-71
2022/09/22 01:45:09;;;;;;;4.60;3.55;;;7.40;99.90;;;;;;4938902;29;20199;-71
2022/09/22 01:47:43;;;;;;;7.88;3.17;;;7.40;99.90;;;;;;4944397;29;20203;-71
2022/09/22 01:50:18;;;;;;;5.03;3.80;;;7.40;99.90;;;;;;4933629;29;20203;-71
2022/09/22 01:52:48;;;;;;;6.55;4.70;;;7.40;99.90;;;;;;4933776;29;20576;-69
2022/09/22 01:55:23;;;;;;;4.70;3.50;;;7.60;99.90;;;;;;4937845;29;20227;-71
2022/09/22 01:57:55;;;;;;;7.75;4.60;;;7.60;99.90;;;;;;4933311;29;20192;-71
2022/09/22 02:00:27;;;;;;;5.28;3.70;;;7.50;99.90;;;;;;4941086;29;20200;-71
2022/09/22 02:03:04;;;;;;;7.82;4.03;;;7.40;99.90;;;;;;4940597;29;20307;-71
2022/09/22 02:05:36;;;;;;;3.60;3.30;;;7.40;99.90;;;;;;4940927;29;20226;-70
2022/09/22 02:08:15;;;;;;;6.13;3.55;;;7.30;99.90;;;;;;4936768;29;20236;-71
2022/09/22 02:10:47;;;;;;;3.85;3.15;;;7.40;99.90;;;;;;4935779;29;20678;-71
2022/09/22 02:13:16;;;;;;;9.95;3.90;;;7.30;99.90;;;;;;4944537;28;20310;-71
2022/09/22 02:16:02;;;;;;;3.30;2.70;;;7.30;99.90;;;;;;4952486;28;20217;-71
2022/09/22 02:18:39;;;;;;;3.03;2.78;;;7.20;99.90;;;;;;4953839;28;20199;-71
2022/09/22 02:21:08;;;;;;;6.43;3.85;;;7.20;99.90;;;;;;4946297;28;20657;-71
2022/09/22 02:23:36;;;;;;;4.57;3.33;;;7.20;99.90;;;;;;4953949;28;20275;-71
2022/09/22 02:26:06;;;;;;;4.63;4.03;;;7.10;99.90;;;;;;4954451;28;20670;-71
2022/09/22 02:28:38;;;;;;;4.15;3.75;;;7.00;99.90;;;;;;4955213;28;20203;-70
2022/09/22 02:31:10;;;;;;;4.15;3.75;;;7.00;99.90;;;;;;4954289;28;20203;-70
2022/09/22 02:33:50;;;;;;;5.57;3.92;;;7.00;99.90;;;;;;4954529;28;20216;-68
2022/09/22 02:36:35;;;;;;;4.65;3.58;;;7.00;99.90;;;;;;4954763;29;20733;-71
2022/09/22 02:39:09;;;;;;;3.53;3.22;;;6.90;99.90;;;;;;4950994;28;20210;-72
2022/09/22 02:41:56;;;;;;;8.00;3.88;;;7.00;99.90;;;;;;4954326;28;20287;-71
2022/09/22 02:44:30;;;;;;;5.15;3.90;;;7.00;99.90;;;;;;4955169;28;20632;-71
2022/09/22 02:47:03;;;;;;;5.55;4.63;;;7.00;99.90;;;;;;4954318;28;20187;-72
2022/09/22 02:49:34;;;;;;;5.13;3.50;;;7.00;99.90;;;;;;4956219;28;20197;-71
2022/09/22 02:52:08;;;;;;;4.82;4.38;;;7.10;99.90;;;;;;4949924;29;20217;-71
2022/09/22 02:54:38;;;;;;;4.72;3.55;;;7.00;99.90;;;;;;4956799;28;20717;-71
2022/09/22 02:57:07;;;;;;;5.57;4.13;;;6.90;99.90;;;;;;4965293;28;20719;-68
2022/09/22 02:59:35;;;;;;;3.75;3.38;;;6.90;99.90;;;;;;4955077;28;20250;-70
2022/09/22 03:02:04;;;;;;;5.75;4.93;;;6.70;99.90;;;;;;4955804;28;20211;-70
2022/09/22 03:04:34;;;;;;;5.82;3.47;;;6.70;99.90;;;;;;4954421;28;20199;-71
2022/09/22 03:07:02;;;;;;;5.97;3.42;;;6.70;99.90;;;;;;4952073;28;20560;-72
2022/09/22 03:09:31;;;;;;;10.65;4.45;;;6.60;99.90;;;;;;4943138;29;20679;-72
2022/09/22 03:11:59;;;;;;;5.03;3.97;;;6.60;99.90;;;;;;4954516;28;20267;-72
2022/09/22 03:14:28;;;;;;;5.25;4.20;;;6.60;99.90;;;;;;4954700;28;20784;-72
2022/09/22 03:16:56;;;;;;;9.82;4.05;;;6.60;99.90;;;;;;4954923;28;20691;-71
2022/09/22 03:19:25;;;;;;;3.65;3.35;;;6.60;99.90;;;;;;4955251;29;20420;-72
2022/09/22 03:21:55;;;;;;;3.58;3.10;;;6.60;99.90;;;;;;4953222;28;20538;-72
2022/09/22 03:24:23;;;;;;;5.78;3.80;;;6.50;99.90;;;;;;4950010;29;20185;-72
2022/09/22 03:26:52;;;;;;;5.45;3.85;;;6.50;99.90;;;;;;4948760;28;20230;-71
2022/09/22 03:29:20;;;;;;;7.28;3.85;;;6.40;99.90;;;;;;4953876;28;20231;-71
2022/09/22 03:31:49;;;;;;;5.97;3.90;;;6.50;99.90;;;;;;4953684;28;20716;-72
2022/09/22 03:34:20;;;;;;;5.15;4.10;;;6.50;99.90;;;;;;4949868;28;20208;-71
2022/09/22 03:36:48;;;;;;;4.65;3.28;;;6.50;99.90;;;;;;4949903;28;20205;-71
2022/09/22 03:39:18;;;;;;;5.40;3.88;;;6.50;99.90;;;;;;4946546;28;20238;-71
2022/09/22 03:41:47;;;;;;;5.65;4.45;;;6.50;99.90;;;;;;4949998;28;20487;-71
2022/09/22 03:44:16;;;;;;;4.25;3.42;;;6.50;99.90;;;;;;4950805;28;20692;-71
2022/09/22 03:46:45;;;;;;;5.03;3.55;;;6.40;99.90;;;;;;4951094;28;20196;-70
2022/09/22 03:49:14;;;;;;;4.95;3.10;;;6.40;99.90;;;;;;4948368;29;20203;-71
2022/09/22 03:51:42;;;;;;;6.47;4.25;;;6.40;99.90;;;;;;4953735;29;20621;-70
2022/09/22 03:54:11;;;;;;;8.52;3.35;;;6.40;99.90;;;;;;4951398;28;20200;-71
2022/09/22 03:56:41;;;;;;;4.65;3.25;;;6.30;99.90;;;;;;4955520;28;20281;-71
2022/09/22 03:59:10;;;;;;;3.38;2.42;;;6.30;99.90;;;;;;4949307;28;20222;-71
2022/09/22 04:01:38;;;;;;;6.00;4.43;;;6.30;99.90;;;;;;4957589;29;20196;-71
2022/09/22 04:04:07;;;;;;;5.53;3.60;;;6.20;99.90;;;;;;4961226;28;20543;-71
2022/09/22 04:06:37;;;;;;;5.05;4.10;;;6.20;99.90;;;;;;4952335;28;20196;-70
2022/09/22 04:09:06;;;;;;;5.35;4.07;;;6.20;99.90;;;;;;4953550;28;20614;-70
2022/09/22 04:11:36;;;;;;;4.60;4.20;;;6.10;99.90;;;;;;4951779;28;20206;-70
2022/09/22 04:14:06;;;;;;;6.00;4.30;;;6.00;99.90;;;;;;4974954;23;20313;-70
2022/09/22 04:16:34;;;;;;;5.15;3.90;;;6.00;99.90;;;;;;4961652;28;20275;-70
2022/09/22 04:19:03;;;;;;;4.85;3.67;;;6.00;99.90;;;;;;4952592;28;20199;-70
2022/09/22 04:21:32;;;;;;;4.68;3.45;;;6.10;99.90;;;;;;4951026;28;20191;-70
2022/09/22 04:24:01;;;;;;;4.25;3.65;;;6.10;99.90;;;;;;4959103;28;20204;-70
2022/09/22 04:26:29;;;;;;;4.97;3.85;;;6.20;99.90;;;;;;4960185;28;20185;-71
2022/09/22 04:28:58;;;;;;;6.07;4.43;;;6.30;99.90;;;;;;4952735;28;20200;-71
2022/09/22 04:31:28;;;;;;;5.53;4.47;;;6.30;99.90;;;;;;4953723;28;20195;-71
2022/09/22 04:33:56;;;;;;;6.50;4.50;;;6.30;99.90;;;;;;4965665;28;20199;-71
2022/09/22 04:36:25;;;;;;;5.40;4.13;;;6.20;99.90;;;;;;4963317;28;20211;-71
2022/09/22 04:38:54;;;;;;;5.15;4.00;;;6.20;99.90;;;;;;4949860;28;20701;-72
2022/09/22 04:41:22;;;;;;;6.20;4.25;;;6.30;99.90;;;;;;4958278;28;20238;-72
2022/09/22 04:43:51;;;;;;;6.00;3.95;;;6.30;99.90;;;;;;4953446;28;20682;-71
2022/09/22 04:46:19;;;;;;;4.65;3.83;;;6.30;99.90;;;;;;4959656;28;20187;-71
2022/09/22 04:48:49;;;;;;;6.43;5.03;;;6.20;99.90;;;;;;4947090;28;20205;-71
2022/09/22 04:51:18;;;;;;;5.40;4.78;;;6.30;99.90;;;;;;4958014;28;20192;-71
2022/09/22 04:53:46;;;;;;;6.35;5.20;;;6.30;99.90;;;;;;4952922;28;20196;-71
2022/09/22 04:56:15;;;;;;;7.15;5.25;;;6.20;99.90;;;;;;4960851;28;20210;-70
2022/09/22 04:58:43;;;;;;;4.47;4.05;;;6.20;99.90;;;;;;4954659;28;20441;-71
2022/09/22 05:01:11;;;;;;;7.55;5.22;;;6.20;99.90;;;;;;4948453;29;20189;-71
2022/09/22 05:03:40;;;;;;;8.23;5.28;;;6.20;99.90;;;;;;4948122;28;20200;-71
2022/09/22 05:06:10;;;;;;;6.88;4.70;;;6.20;99.90;;;;;;4960042;28;20284;-71
2022/09/22 05:08:38;;;;;;;5.22;4.55;;;6.20;99.90;;;;;;4952331;28;20204;-71
2022/09/22 05:11:08;;;;;;;5.13;4.47;;;6.10;99.90;;;;;;4953000;28;20627;-70
2022/09/22 05:13:39;;;;;;;8.73;4.63;;;6.10;99.90;;;;;;4953127;28;20211;-70
2022/09/22 05:16:08;;;;;;;8.05;5.53;;;6.20;99.90;;;;;;4953753;28;20212;-70
2022/09/22 05:18:38;;;;;;;5.03;4.53;;;6.20;99.90;;;;;;4953723;28;20192;-70
2022/09/22 05:21:06;;;;;;;5.97;5.47;;;6.20;99.90;;;;;;4955247;28;20585;-70
2022/09/22 05:23:38;;;;;;;5.45;4.85;;;6.20;99.90;;;;;;4953539;28;20566;-70
2022/09/22 05:26:06;;;;;;;7.97;6.38;;;6.20;99.90;;;;;;4954382;28;20198;-70
2022/09/22 05:28:35;;;;;;;5.38;4.88;;;6.30;99.90;;;;;;4957330;28;20551;-70
2022/09/22 05:31:04;;;;;;;7.03;4.78;;;6.40;99.90;;;;;;4956871;28;20192;-71
2022/09/22 05:33:33;;;;;;;8.50;5.00;;;6.50;99.90;;;;;;4972363;28;20205;-71
2022/09/22 05:36:01;;;;;;;14.85;6.93;;;6.60;99.90;;;;;;4958646;28;20564;-72
2022/09/22 05:38:30;;;;;;;10.68;6.47;;;6.60;99.90;;;;;;4961905;28;20191;-70
2022/09/22 05:41:00;;;;;;;5.90;4.95;;;6.80;99.90;;;;;;4959948;28;20202;-70
2022/09/22 05:43:28;;;;;;;9.60;6.68;;;6.90;99.90;;;;;;4943651;29;20342;-71
2022/09/22 05:45:57;;;;;;;6.35;5.75;;;7.00;99.90;;;;;;4955787;29;20216;-71
2022/09/22 05:48:25;;;;;;;7.78;5.13;;;7.00;99.90;;;;;;4960085;28;20247;-70
2022/09/22 05:50:58;;;;;;;16.15;6.03;;;7.10;99.90;;;;;;4959847;28;20215;-70
2022/09/22 05:53:27;;;;;;;7.53;6.18;;;7.10;99.90;;;;;;4963151;28;20223;-70
2022/09/22 05:55:58;;;;;;;18.05;5.75;;;7.20;99.90;;;;;;4966964;28;20708;-70
2022/09/22 05:58:28;;;;;;;7.13;5.28;;;7.40;99.90;;;;;;4957719;28;20200;-70
2022/09/22 06:00:57;;;;;;;6.15;5.05;;;7.50;99.90;;;;;;4957986;28;20228;-70
2022/09/22 06:03:26;;;;;;;5.32;4.35;;;7.60;99.90;;;;;;4960700;28;20283;-70
2022/09/22 06:05:55;;;;;;;13.48;4.75;;;7.60;99.90;;;;;;4957838;28;20251;-71
2022/09/22 06:08:23;;;;;;;5.75;4.22;;;7.70;99.90;;;;;;4954870;28;20688;-70
2022/09/22 06:10:52;;;;;;;6.72;5.25;;;7.90;99.90;;;;;;4955268;29;20204;-70
2022/09/22 06:13:20;;;;;;;4.70;4.05;;;8.00;99.90;;;;;;4954328;29;20662;-70
2022/09/22 06:15:51;;;;;;;8.32;5.20;;;8.10;99.90;;;;;;4955664;29;20741;-71
2022/09/22 06:18:19;;;;;;;4.97;4.47;;;8.10;99.90;;;;;;4957178;29;20195;-70
2022/09/22 06:20:55;;;;;;;5.63;5.13;;;8.20;99.90;;;;;;4955421;28;20188;-70
2022/09/22 06:23:25;;;;;;;6.22;5.18;;;8.30;99.90;;;;;;4955419;29;20283;-70
2022/09/22 06:25:57;;;;;;;5.00;4.22;;;8.40;99.90;;;;;;4954978;28;20586;-71
2022/09/22 06:28:26;;;;;;;7.18;4.60;;;8.60;99.90;;;;;;4953043;29;20275;-70
2022/09/22 06:30:59;;;;;;;5.88;5.38;;;8.70;99.90;;;;;;4952920;28;20188;-70
2022/09/22 06:33:28;;;;;;;6.32;5.63;;;8.80;99.90;;;;;;4950266;28;20271;-70
2022/09/22 06:35:57;;;;;;;5.75;4.60;;;8.90;99.90;;;;;;4952782;29;20226;-70
2022/09/22 06:38:25;;;;;;;6.18;4.90;;;9.00;99.90;;;;;;4952287;28;20294;-70
2022/09/22 06:40:59;;;;;;;5.37;4.70;;;9.10;99.90;;;;;;4953777;28;20196;-71
2022/09/22 06:43:29;;;;;;;6.32;5.72;;;9.20;99.90;;;;;;4953859;29;20410;-70
2022/09/22 06:46:01;;;;;;;9.07;4.70;;;9.30;99.90;;;;;;4953080;29;20220;-70
2022/09/22 06:48:30;;;;;;;5.83;5.23;;;9.60;99.90;;;;;;4954104;29;20741;-70
2022/09/22 06:50:59;;;;;;;8.67;5.30;;;9.80;99.90;;;;;;4952667;28;20531;-71
2022/09/22 06:53:27;;;;;;;4.43;4.03;;;9.90;99.90;;;;;;4954251;29;20418;-71
2022/09/22 06:55:57;;;;;;;4.20;3.80;;;10.10;99.90;;;;;;4954126;29;20605;-71
2022/09/22 06:58:27;;;;;;;5.97;4.97;;;10.10;99.90;;;;;;4948172;29;20455;-71
2022/09/22 07:01:02;;;;;;;8.03;5.13;;;10.30;99.90;;;;;;4953443;29;20427;-70
2022/09/22 07:03:39;;;;;;;11.23;4.70;;;10.40;99.90;;;;;;4953911;29;20434;-71
2022/09/22 07:06:08;;;;;;;6.33;5.07;;;10.50;99.90;;;;;;4947090;29;20769;-70
2022/09/22 07:08:38;;;;;;;4.43;4.03;;;10.60;99.90;;;;;;4954268;29;20462;-71
2022/09/22 07:11:08;;;;;;;10.73;3.47;;;10.80;1.00;;;;;;4942428;29;20448;-71
2022/09/22 07:13:39;;;;;;;6.97;4.87;;;10.80;1.00;;;;;;4954411;28;20735;-69
2022/09/22 07:16:11;;;;;;;4.53;4.13;;;10.90;1.00;;;;;;4960683;28;20542;-70
2022/09/22 07:18:41;;;;;;;5.47;4.10;;;11.00;1.00;;;;;;4953818;29;20436;-70
2022/09/22 07:21:12;;;;;;;7.00;4.63;;;11.00;1.00;;;;;;4953717;29;20489;-71
2022/09/22 07:23:42;;;;;;;4.60;3.67;;;11.10;1.00;;;;;;4953487;28;20431;-72
2022/09/22 07:26:13;;;;;;;6.13;4.20;;;11.20;1.00;;;;;;4951344;29;20498;-72
2022/09/22 07:28:41;;;;;;;7.40;4.20;;;11.30;1.00;;;;;;4959275;29;20435;-70
2022/09/22 07:31:13;;;;;;;4.00;3.60;;;11.40;99.90;;;;;;4959246;29;20464;-71
2022/09/22 07:33:44;;;;;;;5.83;4.07;;;11.50;99.90;;;;;;4958314;28;20443;-71
2022/09/22 07:36:13;;;;;;;6.43;4.20;;;11.60;99.90;;;;;;4958011;29;20509;-70
2022/09/22 07:38:43;;;;;;;4.67;3.23;;;11.60;99.90;;;;;;4958234;29;20495;-71
2022/09/22 07:41:13;;;;;;;6.03;4.33;;;11.70;99.90;;;;;;4958137;29;20825;-70
2022/09/22 07:43:42;;;;;;;6.07;3.90;;;11.80;99.90;;;;;;4959243;29;20407;-71
2022/09/22 07:46:13;;;;;;;9.17;4.53;;;11.80;99.90;;;;;;4960863;29;20434;-72
2022/09/22 07:48:45;;;;;;;7.70;5.40;;;12.00;99.90;;;;;;4958982;28;20432;-73
2022/09/22 07:51:18;;;;;;;4.27;3.83;;;12.30;99.90;;;;;;4961941;28;20509;-71
2022/09/22 07:53:48;;;;;;;7.10;4.20;;;12.50;99.90;;;;;;4953114;28;20414;-73
2022/09/22 07:56:20;;;;;;;5.37;4.33;;;12.60;99.90;;;;;;4953304;29;20909;-71
2022/09/22 07:58:50;;;;;;;4.47;3.70;;;12.60;99.90;;;;;;4952782;29;20526;-71
2022/09/22 08:01:22;;;;;;;5.30;4.20;;;12.70;99.90;;;;;;4952807;29;20411;-71
2022/09/22 08:03:51;;;;;;;10.77;4.60;;;12.70;99.90;;;;;;4953603;29;20438;-71
2022/09/22 08:06:21;;;;;;;4.57;2.80;;;12.70;99.90;;;;;;4952844;28;20604;-71
2022/09/22 08:08:54;;;;;;;6.47;4.23;;;12.70;99.90;;;;;;4948286;29;20398;-71
2022/09/22 08:11:24;;;;;;;5.13;2.70;;;12.90;99.90;;;;;;4952581;29;20501;-71
2022/09/22 08:13:54;;;;;;;4.50;3.23;;;12.90;99.90;;;;;;4951656;29;20480;-70
2022/09/22 08:16:27;;;;;;;5.43;3.27;;;12.90;99.90;;;;;;4952126;29;20444;-72
2022/09/22 08:18:56;;;;;;;10.83;3.17;;;13.00;99.90;;;;;;4951770;29;20813;-72
2022/09/22 08:21:25;;;;;;;4.93;3.60;;;13.30;99.90;;;;;;4951878;29;20454;-71
2022/09/22 08:23:54;;;;;;;4.00;2.17;;;13.40;99.90;;;;;;4950621;29;20422;-72
2022/09/22 08:26:23;;;;;;;8.20;2.97;;;13.60;99.90;;;;;;4951648;29;20414;-70
2022/09/22 08:28:52;;;;;;;6.27;2.67;;;13.60;99.90;;;;;;4951707;29;20420;-71
2022/09/22 08:31:22;;;;;;;5.93;3.00;;;13.70;99.90;;;;;;4952094;29;20443;-71
2022/09/22 08:33:53;;;;;;;4.57;2.53;;;13.70;99.90;;;;;;4951532;29;20501;-70
2022/09/22 08:36:24;;;;;;;4.83;1.70;;;13.70;99.90;;;;;;4951478;29;20406;-71
2022/09/22 08:38:53;;;;;;;2.37;2.03;;;13.90;99.90;;;;;;4951970;29;20859;-71
2022/09/22 08:41:28;;;;;;;5.13;1.80;;;13.70;99.90;;;;;;4952429;28;20412;-71
2022/09/22 08:44:01;;;;;;;2.23;0.90;;;13.70;98.30;;;;;;4951697;29;20436;-72
2022/09/22 08:46:31;;;;;;;2.83;0.90;;;13.90;93.10;;;;;;4952213;29;20427;-72
2022/09/22 08:51:56;;;;;;;3.10;1.77;;;14.10;83.40;;;;;;4949011;28;20589;-71
2022/09/22 08:54:27;;;;;;;4.50;1.27;;;14.40;88.70;;;;;;4946869;28;20436;-71
2022/09/22 08:57:26;;;;;;;4.27;1.67;;;14.50;72.00;;;;;;4952081;28;20414;-71
2022/09/22 09:00:03;;;;;;;2.50;0.93;;;14.70;65.00;;;;;;4956007;28;20506;-71
2022/09/22 09:02:41;;;;;;;1.80;0.80;;;14.80;55.60;;;;;;4957368;28;20451;-71
2022/09/22 09:05:53;;;;;;;1.37;0.80;;;14.60;53.50;;;;;;4953201;28;20463;-71
2022/09/22 09:08:49;;;;;;;1.30;0.70;;;14.60;51.10;;;;;;4953415;29;20497;-71
2022/09/22 09:11:29;;;;;;;1.40;0.97;;;14.60;50.30;;;;;;4948207;29;20440;-70
2022/09/22 09:14:12;;;;;;;1.20;0.83;;;14.90;47.80;;;;;;4961473;28;20446;-71
2022/09/22 09:16:49;;;;;;;2.10;0.90;;;15.10;44.20;;;;;;4955109;28;20406;-71
2022/09/22 09:19:20;;;;;;;4.30;1.07;;;15.40;42.20;;;;;;4954086;29;20444;-72
2022/09/22 09:21:53;;;;;;;1.27;0.77;;;15.60;38.80;;;;;;4953608;28;20973;-72
2022/09/22 09:24:29;;;;;;;2.03;0.90;;;15.80;30.50;;;;;;4949809;29;20426;-73
2022/09/22 09:27:22;;;;;;;1.20;0.70;;;15.70;27.70;;;;;;4950704;28;20427;-71
2022/09/22 09:30:00;;;;;;;2.27;1.20;;;15.40;24.30;;;;;;4954783;28;20414;-71
2022/09/22 09:32:36;;;;;;;1.10;0.63;;;15.20;24.30;;;;;;4955008;28;20405;-71
2022/09/22 09:35:06;;;;;;;1.30;1.00;;;15.00;21.00;;;;;;4954313;28;20932;-72
2022/09/22 09:37:36;;;;;;;1.67;1.00;;;14.90;18.90;;;;;;4952623;28;20474;-71
2022/09/22 09:40:08;;;;;;;2.37;1.73;;;14.80;18.60;;;;;;4954601;28;20498;-71
2022/09/22 09:42:37;;;;;;;1.20;0.80;;;14.60;19.90;;;;;;4952170;28;20816;-71
2022/09/22 09:45:12;;;;;;;2.20;1.00;;;14.60;22.10;;;;;;4954699;28;20441;-72
2022/09/22 09:48:10;;;;;;;3.40;1.00;;;14.80;21.20;;;;;;4956321;28;20423;-70
2022/09/22 09:50:39;;;;;;;1.30;0.90;;;15.10;13.90;;;;;;4956688;28;20406;-72
2022/09/22 09:53:37;;;;;;;2.43;0.80;;;15.00;9.30;;;;;;4957975;28;20428;-70
2022/09/22 09:56:22;;;;;;;2.10;0.90;;;14.70;7.40;;;;;;4947593;28;20430;-71
2022/09/22 10:01:47;;;;;;;2.07;1.00;;;14.50;4.90;;;;;;4958348;28;20447;-74
2022/09/22 10:04:30;;;;;;;3.30;0.90;;;14.40;6.20;;;;;;4947343;29;20498;-74
2022/09/22 10:07:14;;;;;;;3.13;2.10;;;14.50;3.40;;;;;;4947832;29;20436;-74
2022/09/22 10:09:44;;;;;;;1.50;1.00;;;14.70;3.90;;;;;;4946231;29;20432;-75
2022/09/22 10:12:26;;;;;;;2.30;1.10;;;15.00;2.40;;;;;;4947662;28;20502;-74
2022/09/22 10:14:58;;;;;;;5.37;2.00;;;15.30;1.50;;;;;;4948016;29;20467;-74
2022/09/22 10:17:29;;;;;;;2.20;1.33;;;15.40;1.00;;;;;;4947708;28;20432;-74
2022/09/22 10:20:17;;;;;;;3.50;0.97;;;15.40;1.00;;;;;;4948953;29;20443;-74
2022/09/22 10:22:45;;;;;;;2.57;1.13;;;15.40;1.00;;;;;;4955260;28;20845;-74
2022/09/22 10:25:22;;;;;;;2.63;1.33;;;15.30;1.00;;;;;;4956592;29;20409;-74
2022/09/22 10:28:02;;;;;;;1.90;0.93;;;15.50;1.00;;;;;;4955114;28;20506;-74
2022/09/22 10:30:36;;;;;;;1.63;0.70;;;15.60;1.00;;;;;;4959356;28;20475;-75
2022/09/22 10:33:16;;;;;;;1.20;0.80;;;15.70;1.00;;;;;;4963440;29;20955;-75
2022/09/22 10:35:47;;;;;;;1.20;0.87;;;15.90;1.00;;;;;;4958304;29;20399;-75
2022/09/22 10:38:20;;;;;;;1.70;0.60;;;15.90;1.00;;;;;;4950429;29;20802;-74
2022/09/22 10:40:56;;;;;;;2.50;1.10;;;15.90;1.00;;;;;;4946453;29;20855;-73
2022/09/22 10:43:35;;;;;;;1.57;0.67;;;16.20;1.00;;;;;;4951117;29;20806;-74
2022/09/22 10:46:27;;;;;;;1.33;0.73;;;16.30;1.00;;;;;;4954993;28;20534;-74
2022/09/22 10:49:06;;;;;;;1.60;1.10;;;16.30;1.00;;;;;;4955742;28;20880;-74
2022/09/22 10:51:53;;;;;;;1.93;1.10;;;16.30;1.00;;;;;;4956864;28;20434;-74
2022/09/22 10:54:41;;;;;;;5.83;1.30;;;16.20;1.00;;;;;;4955470;28;20445;-74
2022/09/22 10:57:28;;;;;;;4.03;1.00;;;16.20;1.00;;;;;;4958524;28;20773;-74
2022/09/22 11:00:10;;;;;;;1.50;0.80;;;16.10;1.00;;;;;;4955694;29;20482;-74
2022/09/22 11:03:08;;;;;;;1.33;0.90;;;15.80;1.00;;;;;;4956290;28;20459;-75
2022/09/22 11:14:34;;;;;;;4.30;1.80;;;15.00;1.00;;;;;;4953601;29;20819;-74
2022/09/22 11:17:17;;;;;;;4.40;3.30;;;14.80;1.00;;;;;;4955349;28;20435;-75
2022/09/22 11:19:59;;;;;;;4.53;3.10;;;14.70;1.00;;;;;;4950311;29;20578;-74
2022/09/22 11:22:46;;;;;;;8.10;3.90;;;14.70;1.00;;;;;;4954748;28;20434;-74
2022/09/22 11:25:28;;;;;;;11.90;7.07;;;14.70;1.00;;;;;;4947346;28;20437;-74
2022/09/22 11:28:14;;;;;;;3.87;1.97;;;14.80;1.00;;;;;;4954105;29;20483;-75
2022/09/22 11:30:47;;;;;;;5.13;2.70;;;14.80;1.00;;;;;;4955100;29;20430;-74
2022/09/22 11:33:42;;;;;;;14.40;6.77;;;14.90;1.00;;;;;;4954430;29;20534;-74
2022/09/22 11:36:24;;;;;;;10.30;6.77;;;14.80;1.00;;;;;;4950044;29;20482;-75
2022/09/22 11:39:10;;;;;;;12.47;9.97;;;14.70;1.00;;;;;;4955304;28;20477;-73
2022/09/22 11:41:42;;;;;;;3.57;1.60;;;14.70;1.00;;;;;;4948259;29;20406;-74
2022/09/22 11:44:30;;;;;;;1.60;1.30;;;14.80;1.00;;;;;;4953928;28;20438;-73
2022/09/22 11:47:16;;;;;;;2.13;1.00;;;14.80;1.00;;;;;;4949854;29;20438;-75
2022/09/22 11:50:04;;;;;;;4.97;3.47;;;14.90;1.00;;;;;;4955336;29;20431;-74
2022/09/22 11:52:46;;;;;;;2.37;1.20;;;15.00;1.00;;;;;;4955555;29;20690;-74
2022/09/22 11:55:24;;;;;;;3.07;2.40;;;14.90;1.00;;;;;;4951717;28;20438;-74
2022/09/22 11:57:58;;;;;;;5.90;4.00;;;14.80;1.00;;;;;;4955220;28;20436;-74
2022/09/22 12:00:33;;;;;;;2.13;1.10;;;14.90;1.00;;;;;;4955532;28;20506;-73
2022/09/22 12:03:08;;;;;;;1.40;0.80;;;15.00;1.00;;;;;;4952985;29;20451;-75
2022/09/22 12:05:41;;;;;;;1.90;1.23;;;15.30;1.00;;;;;;4954983;28;20406;-74
2022/09/22 12:08:13;;;;;;;1.37;0.87;;;15.60;1.00;;;;;;4954537;29;20418;-74
2022/09/22 12:10:43;;;;;;;4.33;2.57;;;15.90;1.00;;;;;;4951662;29;20407;-75
2022/09/22 12:13:15;;;;;;;4.60;3.13;;;16.20;1.00;;;;;;4947843;29;20466;-74
2022/09/22 12:15:57;;;;;;;2.23;1.00;;;16.20;1.00;;;;;;4954332;29;20449;-73
2022/09/22 12:18:35;;;;;;;2.47;1.17;;;16.00;1.00;;;;;;4950023;29;20417;-75
2022/09/22 12:21:14;;;;;;;8.13;1.37;;;16.10;1.00;;;;;;4955081;28;20471;-75
2022/09/22 12:23:47;;;;;;;1.53;1.20;;;16.20;1.00;;;;;;4955881;28;20882;-75
2022/09/22 12:26:28;;;;;;;1.67;0.70;;;16.40;1.00;;;;;;4956258;28;20406;-75
2022/09/22 12:29:01;;;;;;;2.40;1.27;;;16.40;1.00;;;;;;4950729;29;20469;-74
2022/09/22 12:31:34;;;;;;;1.40;1.20;;;16.30;1.00;;;;;;4954699;29;20409;-75
2022/09/22 12:34:15;;;;;;;2.73;0.90;;;16.20;1.00;;;;;;4949336;29;20434;-75
2022/09/22 12:36:43;;;;;;;2.10;1.10;;;16.10;1.00;;;;;;4957244;28;20435;-74
2022/09/22 12:39:17;;;;;;;2.27;1.20;;;16.30;1.00;;;;;;4958026;28;20940;-74
2022/09/22 12:41:48;;;;;;;3.30;0.80;;;16.40;1.00;;;;;;4957988;29;20454;-74
2022/09/22 12:44:20;;;;;;;4.60;1.03;;;16.50;1.00;;;;;;4957542;29;20835;-74
2022/09/22 12:46:49;;;;;;;1.90;1.07;;;16.60;1.00;;;;;;4956521;29;20932;-74
2022/09/22 12:49:22;;;;;;;1.30;1.10;;;16.70;1.00;;;;;;4954269;29;20419;-74
2022/09/22 12:51:52;;;;;;;2.90;1.87;;;16.90;1.00;;;;;;4958054;29;20437;-74
2022/09/22 12:54:47;;;;;;;1.40;1.03;;;16.80;1.00;;;;;;4958286;29;20459;-74
2022/09/22 12:57:29;;;;;;;1.53;1.13;;;16.50;1.00;;;;;;4961700;28;20414;-75
2022/09/22 13:00:28;;;;;;;1.50;0.77;;;16.40;1.00;;;;;;4955368;29;20453;-75
2022/09/22 13:03:01;;;;;;;1.00;0.60;;;16.00;1.00;;;;;;4958025;28;20430;-74
2022/09/22 13:05:41;;;;;;;2.90;1.00;;;15.90;1.00;;;;;;4957862;28;20498;-74
2022/09/22 13:08:23;;;;;;;2.50;0.77;;;15.80;1.00;;;;;;4957879;29;20436;-76
2022/09/22 13:10:54;;;;;;;2.07;0.90;;;15.80;1.00;;;;;;4956494;29;20416;-74
2022/09/22 13:13:41;;;;;;;1.60;0.90;;;16.00;1.00;;;;;;4950352;29;20456;-75
2022/09/22 13:16:34;;;;;;;1.50;0.73;;;16.20;1.00;;;;;;4952155;29;20416;-75
2022/09/22 13:19:07;;;;;;;4.47;0.90;;;16.30;1.00;;;;;;4951417;28;20435;-74
2022/09/22 13:21:40;;;;;;;2.47;0.97;;;16.10;1.00;;;;;;4955896;28;20448;-74
2022/09/22 13:24:23;;;;;;;1.30;0.73;;;16.00;1.00;;;;;;4957407;29;20483;-73
2022/09/22 13:27:04;;;;;;;2.13;1.20;;;15.80;1.00;;;;;;4952056;28;20402;-75
2022/09/22 13:29:33;;;;;;;33.83;16.03;;;15.70;1.00;;;;;;4957652;29;20431;-73
2022/09/22 13:32:16;;;;;;;2.40;1.20;;;15.50;1.00;;;;;;4957778;28;20961;-74
2022/09/22 13:34:46;;;;;;;1.40;0.77;;;15.40;1.00;;;;;;4957536;29;20470;-75
2022/09/22 13:37:20;;;;;;;2.20;1.10;;;15.40;1.00;;;;;;4957341;28;20407;-75
2022/09/22 13:39:52;;;;;;;2.97;1.70;;;15.30;1.00;;;;;;4958212;28;20566;-73
2022/09/22 13:42:24;;;;;;;1.80;1.07;;;15.20;1.00;;;;;;4957055;29;20440;-74
2022/09/22 13:44:58;;;;;;;2.07;1.20;;;15.20;1.00;;;;;;4957935;28;20510;-77